createdAt,value
2023-04-21T00:03:36.078Z,8.41
2023-04-21T00:13:37.291Z,8.40
2023-04-21T00:23:36.955Z,8.38
2023-04-21T00:33:36.982Z,8.40
2023-04-21T00:43:37.078Z,8.42
2023-04-21T00:53:37.066Z,8.44
2023-04-21T01:03:37.528Z,8.47
2023-04-21T01:13:38.081Z,8.48
2023-04-21T01:23:37.991Z,8.49
2023-04-21T01:33:38.134Z,8.52
2023-04-21T01:43:38.154Z,8.57
2023-04-21T01:53:38.161Z,8.64
2023-04-21T02:03:38.560Z,8.73
2023-04-21T02:13:39.794Z,8.80
2023-04-21T02:23:40.420Z,8.86
2023-04-21T02:33:40.510Z,8.91
2023-04-21T02:43:41.230Z,8.89
2023-04-21T02:53:41.297Z,8.78
2023-04-21T03:03:41.333Z,8.61
2023-04-21T03:13:41.299Z,8.44
2023-04-21T03:23:41.244Z,8.28
2023-04-21T03:33:41.214Z,8.14
2023-04-21T03:43:41.270Z,8.05
2023-04-21T03:53:41.253Z,8.03
2023-04-21T04:03:41.553Z,8.03
2023-04-21T04:13:42.311Z,8.01
2023-04-21T04:23:43.835Z,7.95
2023-04-21T04:33:44.258Z,7.86
2023-04-21T04:43:44.360Z,7.77
2023-04-21T04:53:44.351Z,7.75
2023-04-21T05:03:44.496Z,7.86
2023-04-21T05:13:45.303Z,8.12
2023-04-21T05:23:45.359Z,8.54
2023-04-21T05:33:45.390Z,9.09
2023-04-21T05:43:47.043Z,9.70
2023-04-21T05:53:47.430Z,10.20
2023-04-21T06:03:49.797Z,10.67
2023-04-21T06:13:50.518Z,11.15
2023-04-21T06:23:50.390Z,11.70
2023-04-21T06:33:50.420Z,12.38
2023-04-21T06:43:50.430Z,13.23
2023-04-21T06:53:50.736Z,14.04
2023-04-21T07:03:50.808Z,14.60
2023-04-21T07:13:51.432Z,15.23
2023-04-21T07:23:51.564Z,15.98
2023-04-21T07:33:51.576Z,16.44
2023-04-21T07:43:53.681Z,16.71
2023-04-21T07:53:53.517Z,17.08
2023-04-21T08:03:53.646Z,17.94
2023-04-21T08:13:53.562Z,19.08
2023-04-21T08:23:55.067Z,20.19
2023-04-21T08:34:01.943Z,21.87
2023-04-21T08:43:57.738Z,22.43
2023-04-21T08:53:57.622Z,21.83
2023-04-21T09:03:57.902Z,21.36
2023-04-21T09:13:58.030Z,20.70
2023-04-21T09:23:58.705Z,20.41
2023-04-21T09:34:00.828Z,20.97
2023-04-21T09:44:01.205Z,22.47
2023-04-21T09:54:01.756Z,23.87
2023-04-21T10:04:01.867Z,24.37
2023-04-21T10:14:02.801Z,24.69
2023-04-21T10:24:02.746Z,24.70
2023-04-21T10:34:02.833Z,24.41
2023-04-21T10:44:02.808Z,24.55
2023-04-21T10:54:05.873Z,25.06
2023-04-21T11:04:06.024Z,25.67
2023-04-21T11:14:05.994Z,25.62
2023-04-21T11:24:05.826Z,25.12
2023-04-21T11:34:06.408Z,25.03
2023-04-21T11:44:07.956Z,25.24
2023-04-21T11:54:08.202Z,25.27
2023-04-21T12:04:08.090Z,24.72
2023-04-21T12:14:09.068Z,23.63
2023-04-21T12:24:08.966Z,23.21
2023-04-21T12:34:09.034Z,23.63
2023-04-21T12:44:09.036Z,24.20
2023-04-21T12:54:08.930Z,24.68
2023-04-21T13:04:09.523Z,24.81
2023-04-21T13:14:10.273Z,24.81
2023-04-21T13:24:11.306Z,24.80
2023-04-21T13:34:11.999Z,24.31
2023-04-21T13:44:12.039Z,23.41
2023-04-21T13:54:12.020Z,22.47
2023-04-21T14:04:12.177Z,21.78
2023-04-21T14:14:12.079Z,21.35
2023-04-21T14:24:12.168Z,20.87
2023-04-21T14:34:12.128Z,20.54
2023-04-21T14:44:12.204Z,20.63
2023-04-21T14:54:12.453Z,21.20
2023-04-21T15:04:12.280Z,21.82
2023-04-21T15:14:12.386Z,22.28
2023-04-21T15:24:12.164Z,22.62
2023-04-21T15:34:12.387Z,23.03
2023-04-21T15:44:12.256Z,23.47
2023-04-21T15:54:12.280Z,23.51
2023-04-21T16:04:12.533Z,23.02
2023-04-21T16:14:15.386Z,22.24
2023-04-21T16:24:15.472Z,21.47
2023-04-21T16:34:15.857Z,20.71
2023-04-21T16:44:16.322Z,20.15
2023-04-21T16:54:16.296Z,19.76
2023-04-21T17:04:16.391Z,19.46
2023-04-21T17:14:16.379Z,19.35
2023-04-21T17:24:16.382Z,19.35
2023-04-21T17:34:16.384Z,19.22
2023-04-21T17:44:16.389Z,19.00
2023-04-21T17:54:16.441Z,18.76
2023-04-21T18:04:16.563Z,18.36
2023-04-21T18:14:17.591Z,17.89
2023-04-21T18:24:17.425Z,17.40
2023-04-21T18:34:17.596Z,16.89
2023-04-21T18:44:17.510Z,16.41
2023-04-21T18:54:17.438Z,16.08
2023-04-21T19:15:21.509Z,15.93
2023-04-21T19:25:21.619Z,15.91
2023-04-21T19:35:21.734Z,15.60
2023-04-21T19:45:21.539Z,14.96
2023-04-21T19:55:21.943Z,14.24
2023-04-21T20:05:22.583Z,13.58
2023-04-21T20:15:23.155Z,13.14
2023-04-21T20:25:23.739Z,12.85
2023-04-21T20:35:23.633Z,12.67
2023-04-21T20:45:23.776Z,12.47
2023-04-21T20:55:23.658Z,12.12
2023-04-21T21:05:23.728Z,11.76
2023-04-21T21:15:23.765Z,11.53
2023-04-21T21:25:23.669Z,11.43
2023-04-21T21:35:23.890Z,11.31
2023-04-21T21:45:23.734Z,11.13
2023-04-21T21:55:23.772Z,10.93
2023-04-21T22:05:23.813Z,10.75
2023-04-21T22:15:23.744Z,10.59
2023-04-21T22:25:25.662Z,10.47
2023-04-21T22:35:25.843Z,10.33
2023-04-21T22:45:26.089Z,10.16
2023-04-21T22:55:25.845Z,10.01
2023-04-21T23:05:25.781Z,9.85
2023-04-21T23:15:26.432Z,9.66
2023-04-21T23:25:26.896Z,9.47
2023-04-21T23:35:26.889Z,9.30
2023-04-21T23:45:26.854Z,9.17
2023-04-21T23:55:26.853Z,9.11
